sensor_id;sensor_type;location;lat;lon;timestamp;temperature;humidity
7174;DHT22;3628;48.654;8.932;2022-09-30T00:00:25;9.20;99.90
7174;DHT22;3628;48.654;8.932;2022-09-30T00:02:51;9.20;99.90
7174;DHT22;3628;48.654;8.932;2022-09-30T00:05:16;9.30;99.90
7174;DHT22;3628;48.654;8.932;2022-09-30T00:07:42;9.30;99.90
7174;DHT22;3628;48.654;8.932;2022-09-30T00:10:08;9.30;99.90
7174;DHT22;3628;48.654;8.932;2022-09-30T00:12:33;9.30;99.90
7174;DHT22;3628;48.654;8.932;2022-09-30T00:14:59;9.20;99.90
7174;DHT22;3628;48.654;8.932;2022-09-30T00:17:25;9.20;99.90
7174;DHT22;3628;48.654;8.932;2022-09-30T00:19:50;9.10;99.90
7174;DHT22;3628;48.654;8.932;2022-09-30T00:22:16;9.10;99.90
7174;DHT22;3628;48.654;8.932;2022-09-30T00:24:41;9.10;99.90
7174;DHT22;3628;48.654;8.932;2022-09-30T00:27:07;9.10;99.90
7174;DHT22;3628;48.654;8.932;2022-09-30T00:29:33;9.10;99.90
7174;DHT22;3628;48.654;8.932;2022-09-30T00:31:58;9.10;99.90
7174;DHT22;3628;48.654;8.932;2022-09-30T00:34:24;9.10;99.90
7174;DHT22;3628;48.654;8.932;2022-09-30T00:36:52;9.10;99.90
7174;DHT22;3628;48.654;8.932;2022-09-30T00:39:26;9.20;99.90
7174;DHT22;3628;48.654;8.932;2022-09-30T00:41:58;9.20;99.90
7174;DHT22;3628;48.654;8.932;2022-09-30T00:44:51;9.20;99.90
7174;DHT22;3628;48.654;8.932;2022-09-30T00:52:49;9.30;99.90
7174;DHT22;3628;48.654;8.932;2022-09-30T00:57:56;9.30;99.90
7174;DHT22;3628;48.654;8.932;2022-09-30T01:00:22;9.30;99.90
7174;DHT22;3628;48.654;8.932;2022-09-30T01:02:47;9.30;99.90
7174;DHT22;3628;48.654;8.932;2022-09-30T01:05:13;9.30;99.90
7174;DHT22;3628;48.654;8.932;2022-09-30T01:07:39;9.40;99.90
7174;DHT22;3628;48.654;8.932;2022-09-30T01:10:05;9.40;99.90
7174;DHT22;3628;48.654;8.932;2022-09-30T01:12:31;9.40;99.90
7174;DHT22;3628;48.654;8.932;2022-09-30T01:14:57;9.40;99.90
7174;DHT22;3628;48.654;8.932;2022-09-30T01:17:43;9.40;99.90
7174;DHT22;3628;48.654;8.932;2022-09-30T01:20:35;9.40;99.90
7174;DHT22;3628;48.654;8.932;2022-09-30T01:37:25;9.20;99.90
7174;DHT22;3628;48.654;8.932;2022-09-30T01:40:15;9.20;99.90
7174;DHT22;3628;48.654;8.932;2022-09-30T01:45:58;9.10;99.90
7174;DHT22;3628;48.654;8.932;2022-09-30T01:49:09;9.20;99.90
7174;DHT22;3628;48.654;8.932;2022-09-30T01:56:46;9.10;99.90
7174;DHT22;3628;48.654;8.932;2022-09-30T01:59:34;9.10;99.90
7174;DHT22;3628;48.654;8.932;2022-09-30T02:02:20;9.10;99.90
7174;DHT22;3628;48.654;8.932;2022-09-30T02:05:03;9.10;99.90
7174;DHT22;3628;48.654;8.932;2022-09-30T02:07:39;9.10;99.90
7174;DHT22;3628;48.654;8.932;2022-09-30T02:10:14;9.10;99.90
7174;DHT22;3628;48.654;8.932;2022-09-30T02:12:46;9.00;99.90
7174;DHT22;3628;48.654;8.932;2022-09-30T02:15:18;9.10;99.90
7174;DHT22;3628;48.654;8.932;2022-09-30T02:17:51;9.10;99.90
7174;DHT22;3628;48.654;8.932;2022-09-30T02:20:30;9.10;99.90
7174;DHT22;3628;48.654;8.932;2022-09-30T02:23:09;9.10;99.90
7174;DHT22;3628;48.654;8.932;2022-09-30T02:25:57;9.10;99.90
7174;DHT22;3628;48.654;8.932;2022-09-30T02:28:26;9.10;99.90
7174;DHT22;3628;48.654;8.932;2022-09-30T02:30:57;9.10;99.90
7174;DHT22;3628;48.654;8.932;2022-09-30T02:33:49;9.10;99.90
7174;DHT22;3628;48.654;8.932;2022-09-30T02:36:32;9.10;99.90
7174;DHT22;3628;48.654;8.932;2022-09-30T02:39:37;9.10;99.90
7174;DHT22;3628;48.654;8.932;2022-09-30T02:42:01;9.00;99.90
7174;DHT22;3628;48.654;8.932;2022-09-30T02:44:31;8.90;99.90
7174;DHT22;3628;48.654;8.932;2022-09-30T02:58:10;8.90;99.90
7174;DHT22;3628;48.654;8.932;2022-09-30T03:00:38;8.90;99.90
7174;DHT22;3628;48.654;8.932;2022-09-30T03:03:09;8.90;99.90
7174;DHT22;3628;48.654;8.932;2022-09-30T03:05:37;8.90;99.90
7174;DHT22;3628;48.654;8.932;2022-09-30T03:08:02;8.90;99.90
7174;DHT22;3628;48.654;8.932;2022-09-30T03:10:29;8.90;99.90
7174;DHT22;3628;48.654;8.932;2022-09-30T03:26:53;8.80;99.90
7174;DHT22;3628;48.654;8.932;2022-09-30T03:29:30;8.80;99.90
7174;DHT22;3628;48.654;8.932;2022-09-30T03:37:23;8.60;99.90
7174;DHT22;3628;48.654;8.932;2022-09-30T03:40:07;8.60;99.90
7174;DHT22;3628;48.654;8.932;2022-09-30T03:42:42;8.50;99.90
7174;DHT22;3628;48.654;8.932;2022-09-30T03:45:16;8.50;99.90
7174;DHT22;3628;48.654;8.932;2022-09-30T03:47:46;8.50;99.90
7174;DHT22;3628;48.654;8.932;2022-09-30T03:50:17;8.50;99.90
7174;DHT22;3628;48.654;8.932;2022-09-30T03:52:44;8.50;99.90
7174;DHT22;3628;48.654;8.932;2022-09-30T03:55:10;8.50;99.90
7174;DHT22;3628;48.654;8.932;2022-09-30T03:57:36;8.50;99.90
7174;DHT22;3628;48.654;8.932;2022-09-30T04:00:02;8.40;99.90
7174;DHT22;3628;48.654;8.932;2022-09-30T04:02:28;8.40;99.90
7174;DHT22;3628;48.654;8.932;2022-09-30T04:04:54;8.40;99.90
7174;DHT22;3628;48.654;8.932;2022-09-30T04:07:20;8.40;99.90
7174;DHT22;3628;48.654;8.932;2022-09-30T04:09:46;8.40;99.90
7174;DHT22;3628;48.654;8.932;2022-09-30T04:12:12;8.40;99.90
7174;DHT22;3628;48.654;8.932;2022-09-30T04:14:37;8.40;99.90
7174;DHT22;3628;48.654;8.932;2022-09-30T04:17:04;8.50;99.90
7174;DHT22;3628;48.654;8.932;2022-09-30T04:19:30;8.50;99.90
7174;DHT22;3628;48.654;8.932;2022-09-30T04:21:56;8.50;99.90
7174;DHT22;3628;48.654;8.932;2022-09-30T04:24:23;8.60;99.90
7174;DHT22;3628;48.654;8.932;2022-09-30T04:26:49;8.60;99.90
7174;DHT22;3628;48.654;8.932;2022-09-30T04:29:15;8.60;99.90
7174;DHT22;3628;48.654;8.932;2022-09-30T04:31:41;8.70;99.90
7174;DHT22;3628;48.654;8.932;2022-09-30T04:34:06;8.70;99.90
7174;DHT22;3628;48.654;8.932;2022-09-30T04:36:32;8.60;99.90
7174;DHT22;3628;48.654;8.932;2022-09-30T04:38:58;8.60;99.90
7174;DHT22;3628;48.654;8.932;2022-09-30T04:41:24;8.60;99.90
7174;DHT22;3628;48.654;8.932;2022-09-30T04:43:50;8.60;99.90
7174;DHT22;3628;48.654;8.932;2022-09-30T04:46:18;8.60;99.90
7174;DHT22;3628;48.654;8.932;2022-09-30T04:48:45;8.60;99.90
7174;DHT22;3628;48.654;8.932;2022-09-30T04:51:19;8.60;99.90
7174;DHT22;3628;48.654;8.932;2022-09-30T04:53:46;8.60;99.90
7174;DHT22;3628;48.654;8.932;2022-09-30T04:56:12;8.70;99.90
7174;DHT22;3628;48.654;8.932;2022-09-30T04:58:38;8.70;99.90
7174;DHT22;3628;48.654;8.932;2022-09-30T05:01:09;8.80;99.90
7174;DHT22;3628;48.654;8.932;2022-09-30T05:03:35;8.80;99.90
7174;DHT22;3628;48.654;8.932;2022-09-30T05:06:02;8.80;99.90
7174;DHT22;3628;48.654;8.932;2022-09-30T05:08:28;8.70;99.90
7174;DHT22;3628;48.654;8.932;2022-09-30T05:10:57;8.80;99.90
7174;DHT22;3628;48.654;8.932;2022-09-30T05:13:24;8.80;99.90
7174;DHT22;3628;48.654;8.932;2022-09-30T05:15:51;8.80;99.90
7174;DHT22;3628;48.654;8.932;2022-09-30T05:18:18;8.80;99.90
7174;DHT22;3628;48.654;8.932;2022-09-30T05:20:44;8.90;99.90
7174;DHT22;3628;48.654;8.932;2022-09-30T05:23:09;8.90;99.90
7174;DHT22;3628;48.654;8.932;2022-09-30T05:25:35;8.90;99.90
7174;DHT22;3628;48.654;8.932;2022-09-30T05:28:00;8.90;99.90
7174;DHT22;3628;48.654;8.932;2022-09-30T05:30:27;8.90;99.90
7174;DHT22;3628;48.654;8.932;2022-09-30T05:32:52;8.90;99.90
7174;DHT22;3628;48.654;8.932;2022-09-30T05:35:18;8.90;99.90
7174;DHT22;3628;48.654;8.932;2022-09-30T05:37:44;9.00;99.90
7174;DHT22;3628;48.654;8.932;2022-09-30T05:40:09;9.00;99.90
7174;DHT22;3628;48.654;8.932;2022-09-30T05:42:35;8.90;99.90
7174;DHT22;3628;48.654;8.932;2022-09-30T05:45:04;8.90;99.90
7174;DHT22;3628;48.654;8.932;2022-09-30T05:47:32;9.00;99.90
7174;DHT22;3628;48.654;8.932;2022-09-30T05:49:57;9.00;99.90
7174;DHT22;3628;48.654;8.932;2022-09-30T05:52:23;9.10;99.90
7174;DHT22;3628;48.654;8.932;2022-09-30T05:54:49;9.10;99.90
7174;DHT22;3628;48.654;8.932;2022-09-30T05:57:15;9.20;99.90
7174;DHT22;3628;48.654;8.932;2022-09-30T05:59:41;9.20;99.90
7174;DHT22;3628;48.654;8.932;2022-09-30T06:02:08;9.30;99.90
7174;DHT22;3628;48.654;8.932;2022-09-30T06:04:34;9.30;99.90
7174;DHT22;3628;48.654;8.932;2022-09-30T06:07:00;9.30;99.90
7174;DHT22;3628;48.654;8.932;2022-09-30T06:09:25;9.40;99.90
7174;DHT22;3628;48.654;8.932;2022-09-30T06:11:51;9.40;99.90
7174;DHT22;3628;48.654;8.932;2022-09-30T06:14:23;9.50;99.90
7174;DHT22;3628;48.654;8.932;2022-09-30T06:16:49;9.60;99.90
7174;DHT22;3628;48.654;8.932;2022-09-30T06:19:15;9.60;99.90
7174;DHT22;3628;48.654;8.932;2022-09-30T06:21:40;9.70;99.90
7174;DHT22;3628;48.654;8.932;2022-09-30T06:24:06;9.80;99.90
7174;DHT22;3628;48.654;8.932;2022-09-30T06:26:37;9.80;99.90
7174;DHT22;3628;48.654;8.932;2022-09-30T06:29:03;9.90;99.90
7174;DHT22;3628;48.654;8.932;2022-09-30T06:31:29;10.00;99.90
7174;DHT22;3628;48.654;8.932;2022-09-30T06:33:56;10.00;99.90
7174;DHT22;3628;48.654;8.932;2022-09-30T06:36:22;10.10;99.90
7174;DHT22;3628;48.654;8.932;2022-09-30T06:38:48;10.00;99.90
7174;DHT22;3628;48.654;8.932;2022-09-30T06:41:17;10.10;99.90
7174;DHT22;3628;48.654;8.932;2022-09-30T06:43:42;10.10;99.90
7174;DHT22;3628;48.654;8.932;2022-09-30T06:46:08;10.20;99.90
7174;DHT22;3628;48.654;8.932;2022-09-30T06:48:36;10.20;99.90
7174;DHT22;3628;48.654;8.932;2022-09-30T06:51:02;10.30;99.90
7174;DHT22;3628;48.654;8.932;2022-09-30T06:53:28;10.40;99.90
7174;DHT22;3628;48.654;8.932;2022-09-30T06:55:55;10.40;99.90
7174;DHT22;3628;48.654;8.932;2022-09-30T06:58:20;10.60;99.90
7174;DHT22;3628;48.654;8.932;2022-09-30T07:00:57;10.60;99.90
7174;DHT22;3628;48.654;8.932;2022-09-30T07:03:26;10.60;99.90
7174;DHT22;3628;48.654;8.932;2022-09-30T07:05:58;10.70;99.90
7174;DHT22;3628;48.654;8.932;2022-09-30T07:08:27;10.80;99.90
7174;DHT22;3628;48.654;8.932;2022-09-30T07:11:06;10.80;99.90
7174;DHT22;3628;48.654;8.932;2022-09-30T07:13:48;10.80;99.90
7174;DHT22;3628;48.654;8.932;2022-09-30T07:16:16;10.90;99.90
7174;DHT22;3628;48.654;8.932;2022-09-30T07:18:42;11.00;99.90
7174;DHT22;3628;48.654;8.932;2022-09-30T07:21:09;10.90;99.90
7174;DHT22;3628;48.654;8.932;2022-09-30T07:23:36;11.00;99.90
7174;DHT22;3628;48.654;8.932;2022-09-30T07:26:03;11.10;99.90
7174;DHT22;3628;48.654;8.932;2022-09-30T07:28:33;11.10;99.90
7174;DHT22;3628;48.654;8.932;2022-09-30T07:31:01;11.10;99.90
7174;DHT22;3628;48.654;8.932;2022-09-30T07:33:30;11.10;99.90
7174;DHT22;3628;48.654;8.932;2022-09-30T07:35:59;11.10;99.90
7174;DHT22;3628;48.654;8.932;2022-09-30T07:38:27;11.20;99.90
7174;DHT22;3628;48.654;8.932;2022-09-30T07:41:02;11.20;99.90
7174;DHT22;3628;48.654;8.932;2022-09-30T07:43:30;11.30;99.90
7174;DHT22;3628;48.654;8.932;2022-09-30T07:46:07;11.30;99.90
7174;DHT22;3628;48.654;8.932;2022-09-30T07:48:32;11.50;99.90
7174;DHT22;3628;48.654;8.932;2022-09-30T07:51:21;11.50;99.90
7174;DHT22;3628;48.654;8.932;2022-09-30T07:53:50;11.70;99.90
7174;DHT22;3628;48.654;8.932;2022-09-30T07:56:17;11.80;99.90
7174;DHT22;3628;48.654;8.932;2022-09-30T07:58:43;11.90;99.90
7174;DHT22;3628;48.654;8.932;2022-09-30T08:01:09;11.90;99.90
7174;DHT22;3628;48.654;8.932;2022-09-30T08:03:37;12.00;99.90
7174;DHT22;3628;48.654;8.932;2022-09-30T08:06:10;12.00;99.90
7174;DHT22;3628;48.654;8.932;2022-09-30T08:08:36;12.20;99.90
7174;DHT22;3628;48.654;8.932;2022-09-30T08:11:03;12.20;99.90
7174;DHT22;3628;48.654;8.932;2022-09-30T08:13:29;12.30;99.90
7174;DHT22;3628;48.654;8.932;2022-09-30T08:15:55;12.40;99.90
7174;DHT22;3628;48.654;8.932;2022-09-30T08:18:20;12.50;99.90
7174;DHT22;3628;48.654;8.932;2022-09-30T08:20:46;12.60;99.90
7174;DHT22;3628;48.654;8.932;2022-09-30T08:23:12;12.70;99.90
7174;DHT22;3628;48.654;8.932;2022-09-30T08:25:37;12.70;99.90
7174;DHT22;3628;48.654;8.932;2022-09-30T08:28:03;12.80;99.90
7174;DHT22;3628;48.654;8.932;2022-09-30T08:30:28;12.90;99.90
7174;DHT22;3628;48.654;8.932;2022-09-30T08:32:54;12.90;99.90
7174;DHT22;3628;48.654;8.932;2022-09-30T08:35:19;13.00;99.90
7174;DHT22;3628;48.654;8.932;2022-09-30T08:37:45;13.10;99.90
7174;DHT22;3628;48.654;8.932;2022-09-30T08:40:26;13.20;99.90
7174;DHT22;3628;48.654;8.932;2022-09-30T08:43:04;13.30;99.90
7174;DHT22;3628;48.654;8.932;2022-09-30T08:53:40;14.00;99.90
7174;DHT22;3628;48.654;8.932;2022-09-30T08:56:07;14.10;99.90
7174;DHT22;3628;48.654;8.932;2022-09-30T08:58:38;14.20;99.90
7174;DHT22;3628;48.654;8.932;2022-09-30T09:03:57;14.60;99.90
7174;DHT22;3628;48.654;8.932;2022-09-30T09:09:34;14.60;99.90
7174;DHT22;3628;48.654;8.932;2022-09-30T09:12:26;14.70;99.90
7174;DHT22;3628;48.654;8.932;2022-09-30T09:15:22;14.80;99.90
7174;DHT22;3628;48.654;8.932;2022-09-30T09:20:38;14.80;99.90
7174;DHT22;3628;48.654;8.932;2022-09-30T09:23:09;14.90;99.90
7174;DHT22;3628;48.654;8.932;2022-09-30T09:25:37;15.10;99.90
7174;DHT22;3628;48.654;8.932;2022-09-30T09:28:10;15.40;99.90
7174;DHT22;3628;48.654;8.932;2022-09-30T09:30:42;15.70;99.90
7174;DHT22;3628;48.654;8.932;2022-09-30T09:33:19;15.90;99.90
7174;DHT22;3628;48.654;8.932;2022-09-30T09:44:29;17.10;99.90
7174;DHT22;3628;48.654;8.932;2022-09-30T09:47:09;17.30;99.90
7174;DHT22;3628;48.654;8.932;2022-09-30T09:57:09;17.00;99.90
7174;DHT22;3628;48.654;8.932;2022-09-30T09:59:36;17.20;99.90
7174;DHT22;3628;48.654;8.932;2022-09-30T10:02:01;17.30;99.90
7174;DHT22;3628;48.654;8.932;2022-09-30T10:04:30;17.00;99.90
7174;DHT22;3628;48.654;8.932;2022-09-30T10:09:37;16.70;99.90
7174;DHT22;3628;48.654;8.932;2022-09-30T10:14:38;16.40;99.90
7174;DHT22;3628;48.654;8.932;2022-09-30T10:17:34;16.10;99.90
7174;DHT22;3628;48.654;8.932;2022-09-30T10:22:33;16.20;99.90
7174;DHT22;3628;48.654;8.932;2022-09-30T10:25:21;16.00;99.90
7174;DHT22;3628;48.654;8.932;2022-09-30T10:27:59;16.00;99.90
7174;DHT22;3628;48.654;8.932;2022-09-30T10:30:48;15.90;99.90
7174;DHT22;3628;48.654;8.932;2022-09-30T10:33:26;16.30;99.90
7174;DHT22;3628;48.654;8.932;2022-09-30T10:36:14;16.70;99.90
7174;DHT22;3628;48.654;8.932;2022-09-30T10:38:57;17.10;99.90
7174;DHT22;3628;48.654;8.932;2022-09-30T10:41:27;17.60;99.90
7174;DHT22;3628;48.654;8.932;2022-09-30T10:43:55;18.00;99.90
7174;DHT22;3628;48.654;8.932;2022-09-30T10:46:36;18.30;99.90
7174;DHT22;3628;48.654;8.932;2022-09-30T10:49:30;18.50;99.90
7174;DHT22;3628;48.654;8.932;2022-09-30T10:52:00;18.40;99.90
7174;DHT22;3628;48.654;8.932;2022-09-30T10:54:50;18.40;99.90
7174;DHT22;3628;48.654;8.932;2022-09-30T10:59:48;18.40;99.90
7174;DHT22;3628;48.654;8.932;2022-09-30T11:02:35;18.20;99.90
7174;DHT22;3628;48.654;8.932;2022-09-30T11:05:17;18.00;99.90
7174;DHT22;3628;48.654;8.932;2022-09-30T11:13:19;17.40;99.90
7174;DHT22;3628;48.654;8.932;2022-09-30T11:15:53;17.10;99.90
7174;DHT22;3628;48.654;8.932;2022-09-30T11:18:46;17.00;99.90
7174;DHT22;3628;48.654;8.932;2022-09-30T11:21:19;16.90;99.90
7174;DHT22;3628;48.654;8.932;2022-09-30T11:23:52;16.90;99.90
7174;DHT22;3628;48.654;8.932;2022-09-30T11:26:31;17.00;99.90
7174;DHT22;3628;48.654;8.932;2022-09-30T11:34:51;17.20;99.90
7174;DHT22;3628;48.654;8.932;2022-09-30T11:40:36;17.30;99.90
7174;DHT22;3628;48.654;8.932;2022-09-30T11:51:08;16.70;99.90
7174;DHT22;3628;48.654;8.932;2022-09-30T11:56:31;17.10;99.90
7174;DHT22;3628;48.654;8.932;2022-09-30T11:59:02;17.10;99.90
7174;DHT22;3628;48.654;8.932;2022-09-30T12:01:40;17.10;99.90
7174;DHT22;3628;48.654;8.932;2022-09-30T12:07:02;17.30;99.90
7174;DHT22;3628;48.654;8.932;2022-09-30T12:09:48;17.20;99.90
7174;DHT22;3628;48.654;8.932;2022-09-30T12:12:16;17.20;99.90
7174;DHT22;3628;48.654;8.932;2022-09-30T12:17:30;17.30;99.90
7174;DHT22;3628;48.654;8.932;2022-09-30T12:20:03;17.40;99.90
7174;DHT22;3628;48.654;8.932;2022-09-30T12:22:36;17.30;99.90
7174;DHT22;3628;48.654;8.932;2022-09-30T12:25:17;17.10;99.90
7174;DHT22;3628;48.654;8.932;2022-09-30T12:27:50;17.20;99.90
7174;DHT22;3628;48.654;8.932;2022-09-30T12:30:20;17.20;99.90
7174;DHT22;3628;48.654;8.932;2022-09-30T12:44:43;17.00;99.90
7174;DHT22;3628;48.654;8.932;2022-09-30T12:49:40;16.90;99.90
7174;DHT22;3628;48.654;8.932;2022-09-30T12:52:14;16.80;99.90
7174;DHT22;3628;48.654;8.932;2022-09-30T12:55:05;16.80;99.90
7174;DHT22;3628;48.654;8.932;2022-09-30T12:57:37;16.60;99.90
7174;DHT22;3628;48.654;8.932;2022-09-30T13:00:13;16.50;99.90
7174;DHT22;3628;48.654;8.932;2022-09-30T13:02:43;16.50;99.90
7174;DHT22;3628;48.654;8.932;2022-09-30T13:10:56;16.40;99.90
7174;DHT22;3628;48.654;8.932;2022-09-30T13:15:54;16.30;99.90
7174;DHT22;3628;48.654;8.932;2022-09-30T13:21:16;16.30;99.90
7174;DHT22;3628;48.654;8.932;2022-09-30T13:23:46;16.30;99.90
7174;DHT22;3628;48.654;8.932;2022-09-30T13:28:49;16.40;99.90
7174;DHT22;3628;48.654;8.932;2022-09-30T13:31:19;16.40;99.90
7174;DHT22;3628;48.654;8.932;2022-09-30T13:34:12;16.40;99.90
7174;DHT22;3628;48.654;8.932;2022-09-30T13:39:42;16.70;99.90
7174;DHT22;3628;48.654;8.932;2022-09-30T13:42:20;16.70;99.90
7174;DHT22;3628;48.654;8.932;2022-09-30T13:45:18;17.00;99.90
7174;DHT22;3628;48.654;8.932;2022-09-30T13:47:58;17.20;99.90
7174;DHT22;3628;48.654;8.932;2022-09-30T13:50:30;17.50;99.90
7174;DHT22;3628;48.654;8.932;2022-09-30T13:52:58;17.80;99.90
7174;DHT22;3628;48.654;8.932;2022-09-30T13:55:26;18.10;99.90
7174;DHT22;3628;48.654;8.932;2022-09-30T13:58:28;18.40;99.90
7174;DHT22;3628;48.654;8.932;2022-09-30T14:01:09;18.40;96.80
7174;DHT22;3628;48.654;8.932;2022-09-30T14:06:35;18.60;94.60
7174;DHT22;3628;48.654;8.932;2022-09-30T14:23:18;19.00;93.90
7174;DHT22;3628;48.654;8.932;2022-09-30T14:31:13;18.90;91.80
7174;DHT22;3628;48.654;8.932;2022-09-30T14:33:40;18.70;91.30
7174;DHT22;3628;48.654;8.932;2022-09-30T14:36:13;18.80;93.40
7174;DHT22;3628;48.654;8.932;2022-09-30T14:38:43;18.90;92.80
7174;DHT22;3628;48.654;8.932;2022-09-30T14:41:23;18.90;93.40
7174;DHT22;3628;48.654;8.932;2022-09-30T14:43:53;18.90;94.50
7174;DHT22;3628;48.654;8.932;2022-09-30T14:46:37;18.90;93.70
7174;DHT22;3628;48.654;8.932;2022-09-30T14:49:14;18.80;93.00
7174;DHT22;3628;48.654;8.932;2022-09-30T14:51:43;18.60;93.40
7174;DHT22;3628;48.654;8.932;2022-09-30T14:56:46;18.30;93.20
7174;DHT22;3628;48.654;8.932;2022-09-30T14:59:18;18.30;92.70
7174;DHT22;3628;48.654;8.932;2022-09-30T15:01:46;18.30;93.60
7174;DHT22;3628;48.654;8.932;2022-09-30T15:04:18;18.40;94.10
7174;DHT22;3628;48.654;8.932;2022-09-30T15:06:48;18.40;93.40
7174;DHT22;3628;48.654;8.932;2022-09-30T15:09:33;18.30;93.40
7174;DHT22;3628;48.654;8.932;2022-09-30T15:12:19;18.40;94.60
7174;DHT22;3628;48.654;8.932;2022-09-30T15:14:52;18.40;95.00
7174;DHT22;3628;48.654;8.932;2022-09-30T15:17:24;18.40;96.00
7174;DHT22;3628;48.654;8.932;2022-09-30T15:19:54;18.20;93.90
7174;DHT22;3628;48.654;8.932;2022-09-30T15:22:20;17.90;95.00
7174;DHT22;3628;48.654;8.932;2022-09-30T15:24:47;17.80;93.90
7174;DHT22;3628;48.654;8.932;2022-09-30T15:27:19;17.60;95.20
7174;DHT22;3628;48.654;8.932;2022-09-30T15:29:56;17.40;97.60
7174;DHT22;3628;48.654;8.932;2022-09-30T15:32:24;17.20;98.10
7174;DHT22;3628;48.654;8.932;2022-09-30T15:34:50;16.90;98.00
7174;DHT22;3628;48.654;8.932;2022-09-30T15:37:25;16.60;98.80
7174;DHT22;3628;48.654;8.932;2022-09-30T15:39:51;16.50;99.40
7174;DHT22;3628;48.654;8.932;2022-09-30T15:42:55;16.30;99.60
7174;DHT22;3628;48.654;8.932;2022-09-30T15:45:37;16.10;99.90
7174;DHT22;3628;48.654;8.932;2022-09-30T15:50:56;15.70;99.90
7174;DHT22;3628;48.654;8.932;2022-09-30T15:53:44;15.50;99.90
7174;DHT22;3628;48.654;8.932;2022-09-30T15:56:34;15.40;99.90
7174;DHT22;3628;48.654;8.932;2022-09-30T15:59:07;15.30;99.90
7174;DHT22;3628;48.654;8.932;2022-09-30T16:01:47;15.10;99.90
7174;DHT22;3628;48.654;8.932;2022-09-30T16:06:46;14.90;99.90
7174;DHT22;3628;48.654;8.932;2022-09-30T16:09:23;14.90;99.90
7174;DHT22;3628;48.654;8.932;2022-09-30T16:12:00;14.80;99.90
7174;DHT22;3628;48.654;8.932;2022-09-30T16:14:40;14.80;99.90
7174;DHT22;3628;48.654;8.932;2022-09-30T16:17:36;14.80;99.90
7174;DHT22;3628;48.654;8.932;2022-09-30T16:20:19;14.80;99.90
7174;DHT22;3628;48.654;8.932;2022-09-30T16:27:42;14.70;99.90
7174;DHT22;3628;48.654;8.932;2022-09-30T16:30:14;14.70;99.90
7174;DHT22;3628;48.654;8.932;2022-09-30T16:32:43;14.90;99.90
7174;DHT22;3628;48.654;8.932;2022-09-30T16:35:16;15.20;99.90
7174;DHT22;3628;48.654;8.932;2022-09-30T16:37:42;15.60;99.90
7174;DHT22;3628;48.654;8.932;2022-09-30T16:40:26;15.90;99.90
7174;DHT22;3628;48.654;8.932;2022-09-30T16:42:53;16.00;99.90
7174;DHT22;3628;48.654;8.932;2022-09-30T16:45:27;16.00;99.90
7174;DHT22;3628;48.654;8.932;2022-09-30T16:47:54;15.90;99.90
7174;DHT22;3628;48.654;8.932;2022-09-30T16:52:54;15.40;99.90
7174;DHT22;3628;48.654;8.932;2022-09-30T16:55:19;15.10;99.90
7174;DHT22;3628;48.654;8.932;2022-09-30T16:57:45;14.90;99.90
7174;DHT22;3628;48.654;8.932;2022-09-30T17:00:14;14.60;99.90
7174;DHT22;3628;48.654;8.932;2022-09-30T17:02:46;14.30;99.90
7174;DHT22;3628;48.654;8.932;2022-09-30T17:05:17;14.00;99.90
7174;DHT22;3628;48.654;8.932;2022-09-30T17:07:48;13.80;99.90
7174;DHT22;3628;48.654;8.932;2022-09-30T17:10:22;13.60;99.90
7174;DHT22;3628;48.654;8.932;2022-09-30T17:12:48;13.30;99.90
7174;DHT22;3628;48.654;8.932;2022-09-30T17:15:15;13.10;99.90
7174;DHT22;3628;48.654;8.932;2022-09-30T17:17:41;12.90;99.90
7174;DHT22;3628;48.654;8.932;2022-09-30T17:20:07;12.60;99.90
7174;DHT22;3628;48.654;8.932;2022-09-30T17:22:33;12.40;99.90
7174;DHT22;3628;48.654;8.932;2022-09-30T17:24:58;12.20;99.90
7174;DHT22;3628;48.654;8.932;2022-09-30T17:27:24;12.10;99.90
7174;DHT22;3628;48.654;8.932;2022-09-30T17:29:50;12.00;99.90
7174;DHT22;3628;48.654;8.932;2022-09-30T17:32:16;11.80;99.90
7174;DHT22;3628;48.654;8.932;2022-09-30T17:34:41;11.80;99.90
7174;DHT22;3628;48.654;8.932;2022-09-30T17:37:07;11.70;99.90
7174;DHT22;3628;48.654;8.932;2022-09-30T17:39:32;11.60;99.90
7174;DHT22;3628;48.654;8.932;2022-09-30T17:41:58;11.50;99.90
7174;DHT22;3628;48.654;8.932;2022-09-30T17:44:42;11.40;99.90
7174;DHT22;3628;48.654;8.932;2022-09-30T17:47:07;11.40;99.90
7174;DHT22;3628;48.654;8.932;2022-09-30T17:49:34;11.30;99.90
7174;DHT22;3628;48.654;8.932;2022-09-30T17:52:00;11.10;99.90
7174;DHT22;3628;48.654;8.932;2022-09-30T17:54:27;11.00;99.90
7174;DHT22;3628;48.654;8.932;2022-09-30T17:56:54;10.90;99.90
7174;DHT22;3628;48.654;8.932;2022-09-30T17:59:19;10.90;99.90
7174;DHT22;3628;48.654;8.932;2022-09-30T18:01:49;10.80;99.90
7174;DHT22;3628;48.654;8.932;2022-09-30T18:04:15;10.60;99.90
7174;DHT22;3628;48.654;8.932;2022-09-30T18:06:43;10.60;99.90
7174;DHT22;3628;48.654;8.932;2022-09-30T18:09:08;10.50;99.90
7174;DHT22;3628;48.654;8.932;2022-09-30T18:11:34;10.40;99.90
7174;DHT22;3628;48.654;8.932;2022-09-30T18:13:59;10.40;99.90
7174;DHT22;3628;48.654;8.932;2022-09-30T18:16:27;10.40;99.90
7174;DHT22;3628;48.654;8.932;2022-09-30T18:18:59;10.40;99.90
7174;DHT22;3628;48.654;8.932;2022-09-30T18:21:25;10.30;99.90
7174;DHT22;3628;48.654;8.932;2022-09-30T18:23:52;10.30;99.90
7174;DHT22;3628;48.654;8.932;2022-09-30T18:26:18;10.30;99.90
7174;DHT22;3628;48.654;8.932;2022-09-30T18:28:44;10.20;99.90
7174;DHT22;3628;48.654;8.932;2022-09-30T18:31:10;10.20;99.90
7174;DHT22;3628;48.654;8.932;2022-09-30T18:33:42;10.20;99.90
7174;DHT22;3628;48.654;8.932;2022-09-30T18:36:08;10.10;99.90
7174;DHT22;3628;48.654;8.932;2022-09-30T18:38:34;10.00;99.90
7174;DHT22;3628;48.654;8.932;2022-09-30T18:41:00;10.00;99.90
7174;DHT22;3628;48.654;8.932;2022-09-30T18:43:25;9.90;99.90
7174;DHT22;3628;48.654;8.932;2022-09-30T18:45:55;9.90;99.90
7174;DHT22;3628;48.654;8.932;2022-09-30T18:48:24;9.90;99.90
7174;DHT22;3628;48.654;8.932;2022-09-30T18:50:51;9.90;99.90
7174;DHT22;3628;48.654;8.932;2022-09-30T18:53:20;9.80;99.90
7174;DHT22;3628;48.654;8.932;2022-09-30T18:55:46;9.80;99.90
7174;DHT22;3628;48.654;8.932;2022-09-30T18:58:12;9.80;99.90
7174;DHT22;3628;48.654;8.932;2022-09-30T19:00:42;9.70;99.90
7174;DHT22;3628;48.654;8.932;2022-09-30T19:03:07;9.60;99.90
7174;DHT22;3628;48.654;8.932;2022-09-30T19:05:35;9.60;99.90
7174;DHT22;3628;48.654;8.932;2022-09-30T19:08:01;9.60;99.90
7174;DHT22;3628;48.654;8.932;2022-09-30T19:10:26;9.50;99.90
7174;DHT22;3628;48.654;8.932;2022-09-30T19:12:52;9.40;99.90
7174;DHT22;3628;48.654;8.932;2022-09-30T19:15:18;9.30;99.90
7174;DHT22;3628;48.654;8.932;2022-09-30T19:17:44;9.30;99.90
7174;DHT22;3628;48.654;8.932;2022-09-30T19:20:11;9.20;99.90
7174;DHT22;3628;48.654;8.932;2022-09-30T19:22:37;9.20;99.90
7174;DHT22;3628;48.654;8.932;2022-09-30T19:25:06;9.20;99.90
7174;DHT22;3628;48.654;8.932;2022-09-30T19:27:32;9.10;99.90
7174;DHT22;3628;48.654;8.932;2022-09-30T19:30:00;9.10;99.90
7174;DHT22;3628;48.654;8.932;2022-09-30T19:32:25;9.10;99.90
7174;DHT22;3628;48.654;8.932;2022-09-30T19:34:53;9.00;99.90
7174;DHT22;3628;48.654;8.932;2022-09-30T19:37:24;9.00;99.90
7174;DHT22;3628;48.654;8.932;2022-09-30T19:39:50;9.00;99.90
7174;DHT22;3628;48.654;8.932;2022-09-30T19:42:15;9.00;99.90
7174;DHT22;3628;48.654;8.932;2022-09-30T19:44:42;8.90;99.90
7174;DHT22;3628;48.654;8.932;2022-09-30T19:47:08;8.80;99.90
7174;DHT22;3628;48.654;8.932;2022-09-30T19:49:34;8.80;99.90
7174;DHT22;3628;48.654;8.932;2022-09-30T19:52:00;8.70;99.90
7174;DHT22;3628;48.654;8.932;2022-09-30T19:54:28;8.70;99.90